Time;durP1;ratioP1;P1;durP2;ratioP2;P2;SDS_P1;SDS_P2;PMS_P1;PMS_P2;Temp;Humidity;BMP_temperature;BMP_pressure;BME280_temperature;BME280_humidity;BME280_pressure;Samples;Min_cycle;Max_cycle;Signal;HPM_P1;HPM_P2
2023/12/10 00:00:55;;;;;;;;;;;2.30;99.90;;;;;;5023916;28;19909;-88
2023/12/10 00:03:24;;;;;;;;;;;2.40;99.90;;;;;;5014533;28;19916;-85
2023/12/10 00:05:50;;;;;;;;;;;2.40;99.90;;;;;;5021910;28;19916;-86
2023/12/10 00:08:16;;;;;;;;;;;2.40;99.90;;;;;;5039859;28;19920;-88
2023/12/10 00:10:42;;;;;;;;;;;2.40;99.90;;;;;;5021942;28;19909;-88
2023/12/10 00:13:10;;;;;;;;;;;2.50;99.90;;;;;;5036977;28;19927;-90
2023/12/10 00:15:37;;;;;;;;;;;2.40;99.90;;;;;;5037771;28;20378;-87
2023/12/10 00:18:03;;;;;;;;;;;2.40;99.90;;;;;;5033561;28;19913;-88
2023/12/10 00:20:29;;;;;;;;;;;2.40;99.90;;;;;;5026180;28;19978;-88
2023/12/10 00:22:55;;;;;;;;;;;2.40;99.90;;;;;;5045169;28;19912;-88
2023/12/10 00:25:21;;;;;;;;;;;2.50;99.90;;;;;;5020186;28;19961;-89
2023/12/10 00:27:46;;;;;;;;;;;2.50;99.90;;;;;;5015568;28;19960;-89
2023/12/10 00:30:12;;;;;;;;;;;2.60;99.90;;;;;;5032398;28;19913;-88
2023/12/10 00:32:38;;;;;;;;;;;2.70;99.90;;;;;;5022690;28;19913;-88
2023/12/10 00:35:04;;;;;;;;;;;2.70;99.90;;;;;;5039012;28;19914;-88
2023/12/10 00:37:30;;;;;;;;;;;2.80;99.90;;;;;;5038999;28;19915;-89
2023/12/10 00:39:55;;;;;;;;;;;2.70;99.90;;;;;;5034123;28;19916;-90
2023/12/10 00:42:21;;;;;;;;;;;2.70;99.90;;;;;;5019036;28;19909;-90
2023/12/10 00:44:47;;;;;;;;;;;2.80;99.90;;;;;;5018956;28;20019;-88
2023/12/10 00:47:13;;;;;;;;;;;2.70;99.90;;;;;;5035113;28;19909;-89
2023/12/10 00:49:38;;;;;;;;;;;2.80;99.90;;;;;;5018803;28;19912;-88
2023/12/10 00:52:04;;;;;;;;;;;2.70;99.90;;;;;;5034871;28;20365;-88
2023/12/10 00:54:32;;;;;;;;;;;2.70;99.90;;;;;;5034885;28;19908;-88
2023/12/10 00:56:59;;;;;;;;;;;2.70;99.90;;;;;;5035103;28;19915;-89
2023/12/10 00:59:25;;;;;;;;;;;2.70;99.90;;;;;;5018367;28;19959;-89
2023/12/10 01:01:50;;;;;;;;;;;2.80;99.90;;;;;;5018739;28;19909;-88
2023/12/10 01:04:16;;;;;;;;;;;2.80;99.90;;;;;;5018268;28;19920;-90
2023/12/10 01:06:42;;;;;;;;;;;2.80;99.90;;;;;;5015149;28;19909;-90
2023/12/10 01:09:08;;;;;;;;;;;2.90;99.90;;;;;;5063151;28;19908;-88
2023/12/10 01:11:35;;;;;;;;;;;2.90;99.90;;;;;;5051387;28;20015;-88
2023/12/10 01:14:02;;;;;;;;;;;3.00;99.90;;;;;;5051709;28;20011;-89
2023/12/10 01:16:28;;;;;;;;;;;3.00;99.90;;;;;;5018315;28;19908;-87
2023/12/10 01:18:54;;;;;;;;;;;3.00;99.90;;;;;;5018277;28;19908;-90
2023/12/10 01:21:19;;;;;;;;;;;3.00;99.90;;;;;;5017693;28;19932;-87
2023/12/10 01:23:45;;;;;;;;;;;3.00;99.90;;;;;;5048700;28;19909;-89
2023/12/10 01:26:13;;;;;;;;;;;2.90;99.90;;;;;;5050708;28;19909;-89
2023/12/10 01:28:39;;;;;;;;;;;3.00;99.90;;;;;;5042007;28;19921;-89
2023/12/10 01:31:05;;;;;;;;;;;3.00;99.90;;;;;;5026545;28;19919;-89
2023/12/10 01:33:31;;;;;;;;;;;3.00;99.90;;;;;;5040806;28;19909;-87
2023/12/10 01:35:57;;;;;;;;;;;3.10;99.90;;;;;;5017660;28;20303;-88
2023/12/10 01:38:22;;;;;;;;;;;3.10;99.90;;;;;;5048883;28;20282;-86
2023/12/10 01:40:48;;;;;;;;;;;3.10;99.90;;;;;;5017033;28;19991;-89
2023/12/10 01:43:17;;;;;;;;;;;3.00;99.90;;;;;;5017035;28;19916;-89
2023/12/10 01:45:50;;;;;;;;;;;3.10;99.90;;;;;;5058570;28;19913;-88
2023/12/10 01:48:20;;;;;;;;;;;3.10;99.90;;;;;;5002809;28;19917;-90
2023/12/10 01:50:46;;;;;;;;;;;3.20;99.90;;;;;;5013571;28;19959;-86
2023/12/10 01:53:12;;;;;;;;;;;3.20;99.90;;;;;;5042562;28;20405;-89
2023/12/10 01:55:37;;;;;;;;;;;3.30;99.90;;;;;;5015521;28;19963;-89
2023/12/10 01:58:04;;;;;;;;;;;3.40;99.90;;;;;;5026451;28;20064;-90
2023/12/10 02:00:30;;;;;;;;;;;3.40;99.90;;;;;;5033162;28;19912;-89
2023/12/10 02:02:56;;;;;;;;;;;3.50;99.90;;;;;;5009599;28;19908;-88
2023/12/10 02:05:22;;;;;;;;;;;3.60;99.90;;;;;;5048448;28;19936;-88
2023/12/10 02:07:49;;;;;;;;;;;3.60;99.90;;;;;;5013187;28;19993;-89
2023/12/10 02:10:15;;;;;;;;;;;3.70;99.90;;;;;;5009406;28;19917;-89
2023/12/10 02:12:41;;;;;;;;;;;3.70;99.90;;;;;;5016467;28;19919;-89
2023/12/10 02:15:17;;;;;;;;;;;3.70;99.90;;;;;;5028529;28;20294;-88
2023/12/10 02:17:44;;;;;;;;;;;3.70;99.90;;;;;;5032570;28;20366;-89
2023/12/10 02:20:12;;;;;;;;;;;3.70;99.90;;;;;;5049393;28;19905;-90
2023/12/10 02:23:02;;;;;;;;;;;3.60;99.90;;;;;;5035026;28;20332;-88
2023/12/10 02:25:31;;;;;;;;;;;3.60;99.90;;;;;;5014402;28;19916;-87
2023/12/10 02:27:57;;;;;;;;;;;3.60;99.90;;;;;;5029976;28;19909;-89
2023/12/10 02:30:23;;;;;;;;;;;3.60;99.90;;;;;;5039467;28;20464;-90
2023/12/10 02:32:49;;;;;;;;;;;3.70;99.90;;;;;;5013987;28;20024;-89
2023/12/10 02:35:15;;;;;;;;;;;3.60;99.90;;;;;;5046856;28;20346;-89
2023/12/10 02:37:41;;;;;;;;;;;3.60;99.90;;;;;;5024878;28;19916;-89
2023/12/10 02:40:07;;;;;;;;;;;3.70;99.90;;;;;;5047486;28;19905;-88
2023/12/10 02:42:33;;;;;;;;;;;3.70;99.90;;;;;;5033073;28;20407;-91
2023/12/10 02:45:17;;;;;;;;;;;3.70;99.90;;;;;;5067762;28;20444;-89
2023/12/10 02:47:43;;;;;;;;;;;3.80;99.90;;;;;;5032390;28;19913;-90
2023/12/10 02:50:09;;;;;;;;;;;3.80;99.90;;;;;;5037419;28;19913;-88
2023/12/10 02:52:36;;;;;;;;;;;3.80;99.90;;;;;;5037735;28;19960;-86
2023/12/10 02:55:03;;;;;;;;;;;3.80;99.90;;;;;;5043450;28;19965;-90
2023/12/10 02:57:28;;;;;;;;;;;3.70;99.90;;;;;;5025555;28;19969;-88
2023/12/10 02:59:54;;;;;;;;;;;3.70;99.90;;;;;;5019620;28;20004;-90
2023/12/10 03:02:20;;;;;;;;;;;3.60;99.90;;;;;;5059823;28;19908;-91
2023/12/10 03:04:47;;;;;;;;;;;3.70;99.90;;;;;;5058172;28;19912;-89
2023/12/10 03:07:16;;;;;;;;;;;3.70;99.90;;;;;;5044490;28;19917;-87
2023/12/10 03:09:42;;;;;;;;;;;3.70;99.90;;;;;;5020052;28;19909;-89
2023/12/10 03:12:08;;;;;;;;;;;3.70;99.90;;;;;;5038220;28;19924;-87
2023/12/10 03:14:34;;;;;;;;;;;3.80;99.90;;;;;;5038266;28;19909;-88
2023/12/10 03:17:00;;;;;;;;;;;3.80;99.90;;;;;;5038699;28;19909;-90
2023/12/10 03:19:25;;;;;;;;;;;3.80;99.90;;;;;;5037250;28;19923;-89
2023/12/10 03:21:51;;;;;;;;;;;3.80;99.90;;;;;;5036689;28;20454;-88
2023/12/10 03:24:17;;;;;;;;;;;3.70;99.90;;;;;;5020333;28;19915;-89
2023/12/10 03:26:43;;;;;;;;;;;3.80;99.90;;;;;;5032023;28;19915;-89
2023/12/10 03:29:08;;;;;;;;;;;3.80;99.90;;;;;;5049663;28;19916;-89
2023/12/10 03:31:34;;;;;;;;;;;3.80;99.90;;;;;;5033206;28;19908;-87
2023/12/10 03:34:00;;;;;;;;;;;3.80;99.90;;;;;;5049911;28;19956;-89
2023/12/10 03:36:25;;;;;;;;;;;3.90;99.90;;;;;;5033308;28;19916;-90
2023/12/10 03:38:51;;;;;;;;;;;3.90;99.90;;;;;;5033002;28;19916;-90
2023/12/10 03:41:17;;;;;;;;;;;3.90;99.90;;;;;;5049428;28;19916;-89
2023/12/10 03:43:43;;;;;;;;;;;3.80;99.90;;;;;;5033043;28;19919;-89
2023/12/10 03:46:08;;;;;;;;;;;3.80;99.90;;;;;;5049266;28;19913;-91
2023/12/10 03:48:34;;;;;;;;;;;3.70;99.90;;;;;;5049494;28;19920;-90
2023/12/10 03:51:00;;;;;;;;;;;3.70;99.90;;;;;;5049729;28;20418;-90
2023/12/10 03:53:26;;;;;;;;;;;3.60;99.90;;;;;;5032326;28;19917;-89
2023/12/10 03:55:51;;;;;;;;;;;3.60;99.90;;;;;;5048629;28;20003;-89
2023/12/10 03:58:17;;;;;;;;;;;3.50;99.90;;;;;;5049165;28;19909;-90
2023/12/10 04:00:43;;;;;;;;;;;3.40;99.90;;;;;;5033071;28;19909;-89
2023/12/10 04:03:09;;;;;;;;;;;3.40;99.90;;;;;;5032447;28;19936;-90
2023/12/10 04:05:35;;;;;;;;;;;3.30;99.90;;;;;;5050930;28;19909;-89
2023/12/10 04:08:01;;;;;;;;;;;3.30;99.90;;;;;;5019161;28;20305;-89
2023/12/10 04:10:27;;;;;;;;;;;3.20;99.90;;;;;;5019185;28;19908;-89
2023/12/10 04:12:53;;;;;;;;;;;3.20;99.90;;;;;;5019271;28;19913;-91
2023/12/10 04:15:18;;;;;;;;;;;3.20;99.90;;;;;;5028369;28;20007;-90
2023/12/10 04:17:44;;;;;;;;;;;3.20;99.90;;;;;;5032073;28;19909;-89
2023/12/10 04:20:10;;;;;;;;;;;3.10;99.90;;;;;;5032224;28;19932;-89
2023/12/10 04:22:36;;;;;;;;;;;3.10;99.90;;;;;;5052146;28;19979;-89
2023/12/10 04:25:01;;;;;;;;;;;3.20;99.90;;;;;;5035598;28;19964;-89
2023/12/10 04:27:27;;;;;;;;;;;3.20;99.90;;;;;;5020351;28;19931;-90
2023/12/10 04:29:53;;;;;;;;;;;3.30;99.90;;;;;;5018884;28;19908;-89
2023/12/10 04:32:19;;;;;;;;;;;3.30;99.90;;;;;;5027835;28;19917;-90
2023/12/10 04:34:45;;;;;;;;;;;3.30;99.90;;;;;;5048783;28;19920;-88
2023/12/10 04:37:10;;;;;;;;;;;3.30;99.90;;;;;;5048295;28;19909;-87
2023/12/10 04:39:36;;;;;;;;;;;3.30;99.90;;;;;;5033315;28;19920;-89
2023/12/10 04:42:02;;;;;;;;;;;3.40;99.90;;;;;;5035132;28;19909;-88
2023/12/10 04:44:28;;;;;;;;;;;3.40;99.90;;;;;;5034649;28;19909;-87
2023/12/10 04:46:54;;;;;;;;;;;3.40;99.90;;;;;;5018539;28;20228;-88
2023/12/10 04:49:20;;;;;;;;;;;3.40;99.90;;;;;;5018612;28;19917;-90
2023/12/10 04:51:45;;;;;;;;;;;3.50;99.90;;;;;;5037947;28;20015;-87
2023/12/10 04:54:11;;;;;;;;;;;3.50;99.90;;;;;;5038353;28;19962;-87
2023/12/10 04:56:37;;;;;;;;;;;3.60;99.90;;;;;;5055073;28;19947;-88
2023/12/10 04:59:03;;;;;;;;;;;3.70;99.90;;;;;;5038104;28;20034;-90
2023/12/10 05:01:28;;;;;;;;;;;3.80;99.90;;;;;;5021253;28;19913;-89
2023/12/10 05:03:54;;;;;;;;;;;3.80;99.90;;;;;;5018294;28;20347;-89
2023/12/10 05:06:20;;;;;;;;;;;3.90;99.90;;;;;;5018374;28;20011;-88
2023/12/10 05:08:45;;;;;;;;;;;3.90;99.90;;;;;;5001717;28;19916;-88
2023/12/10 05:11:11;;;;;;;;;;;4.00;99.90;;;;;;5034176;28;19915;-88
2023/12/10 05:13:37;;;;;;;;;;;4.10;99.90;;;;;;5015012;28;19913;-88
2023/12/10 05:16:03;;;;;;;;;;;4.20;99.90;;;;;;5014661;28;19909;-86
2023/12/10 05:18:29;;;;;;;;;;;4.20;99.90;;;;;;5031688;28;19916;-87
2023/12/10 05:20:55;;;;;;;;;;;4.20;99.90;;;;;;5034414;28;19924;-87
2023/12/10 05:23:21;;;;;;;;;;;4.20;99.90;;;;;;5034308;28;19963;-87
2023/12/10 05:25:46;;;;;;;;;;;4.30;99.90;;;;;;5034621;28;19998;-87
2023/12/10 05:28:12;;;;;;;;;;;4.20;99.90;;;;;;5034382;28;19991;-87
2023/12/10 05:30:38;;;;;;;;;;;4.30;99.90;;;;;;5034255;28;19909;-87
2023/12/10 05:33:04;;;;;;;;;;;4.20;99.90;;;;;;5017650;28;19919;-86
2023/12/10 05:35:29;;;;;;;;;;;4.20;99.90;;;;;;5017872;28;19908;-90
2023/12/10 05:38:14;;;;;;;;;;;4.20;99.90;;;;;;5037135;28;19919;-89
2023/12/10 05:40:40;;;;;;;;;;;4.10;99.90;;;;;;5017892;28;19908;-89
2023/12/10 05:43:05;;;;;;;;;;;4.10;99.90;;;;;;5034204;28;19909;-90
2023/12/10 05:45:31;;;;;;;;;;;4.00;99.90;;;;;;5033856;28;19919;-89
2023/12/10 05:47:57;;;;;;;;;;;4.00;99.90;;;;;;5014486;28;19921;-89
2023/12/10 05:50:23;;;;;;;;;;;3.90;99.90;;;;;;5022493;28;19920;-90
2023/12/10 05:52:49;;;;;;;;;;;3.80;99.90;;;;;;5017835;28;20389;-89
2023/12/10 05:55:14;;;;;;;;;;;3.80;99.90;;;;;;5014247;28;19909;-89
2023/12/10 05:57:40;;;;;;;;;;;3.70;99.90;;;;;;5049317;28;19915;-89
2023/12/10 06:00:06;;;;;;;;;;;3.70;99.90;;;;;;5034049;28;19913;-89
2023/12/10 06:02:32;;;;;;;;;;;3.80;99.90;;;;;;4998755;28;19948;-90
2023/12/10 06:04:58;;;;;;;;;;;3.70;99.90;;;;;;5034099;28;19916;-90
2023/12/10 06:07:24;;;;;;;;;;;3.70;99.90;;;;;;5017540;28;19908;-89
2023/12/10 06:09:50;;;;;;;;;;;3.70;99.90;;;;;;5050397;28;20413;-90
2023/12/10 06:12:16;;;;;;;;;;;3.60;99.90;;;;;;5050240;28;20055;-87
2023/12/10 06:14:42;;;;;;;;;;;3.60;99.90;;;;;;5033006;28;19947;-88
2023/12/10 06:17:09;;;;;;;;;;;3.60;99.90;;;;;;5053750;28;19948;-88
2023/12/10 06:19:35;;;;;;;;;;;3.60;99.90;;;;;;5022900;28;19915;-88
2023/12/10 06:22:01;;;;;;;;;;;3.70;99.90;;;;;;5038266;28;19909;-89
2023/12/10 06:24:27;;;;;;;;;;;3.70;99.90;;;;;;5021109;28;19909;-87
2023/12/10 06:26:53;;;;;;;;;;;3.70;99.90;;;;;;5020836;28;20302;-90
2023/12/10 06:29:18;;;;;;;;;;;3.80;99.90;;;;;;5020968;28;19959;-90
2023/12/10 06:31:44;;;;;;;;;;;3.70;99.90;;;;;;5023813;28;19952;-90
2023/12/10 06:34:10;;;;;;;;;;;3.70;99.90;;;;;;5051370;28;20507;-89
2023/12/10 06:36:36;;;;;;;;;;;3.70;99.90;;;;;;5020438;28;19919;-90
2023/12/10 06:39:02;;;;;;;;;;;3.70;99.90;;;;;;5054175;28;19916;-90
2023/12/10 06:41:28;;;;;;;;;;;3.70;99.90;;;;;;5021101;28;19963;-89
2023/12/10 06:43:54;;;;;;;;;;;3.80;99.90;;;;;;5053891;28;19912;-89
2023/12/10 06:46:19;;;;;;;;;;;3.70;99.90;;;;;;5021107;28;19913;-90
2023/12/10 06:48:45;;;;;;;;;;;3.80;99.90;;;;;;5017302;28;20278;-89
2023/12/10 06:51:11;;;;;;;;;;;3.90;99.90;;;;;;5043004;28;19990;-89
2023/12/10 06:53:37;;;;;;;;;;;4.00;99.90;;;;;;5036978;28;19913;-88
2023/12/10 06:56:03;;;;;;;;;;;4.10;99.90;;;;;;5015493;28;19966;-89
2023/12/10 06:58:28;;;;;;;;;;;4.10;99.90;;;;;;5019359;28;20287;-89
2023/12/10 07:00:56;;;;;;;;;;;4.10;99.90;;;;;;5018395;28;20368;-90
2023/12/10 07:03:22;;;;;;;;;;;4.10;99.90;;;;;;5049564;28;19913;-88
2023/12/10 07:05:48;;;;;;;;;;;4.10;99.90;;;;;;5039473;28;19915;-88
2023/12/10 07:08:14;;;;;;;;;;;4.00;99.90;;;;;;5024807;28;19904;-89
2023/12/10 07:10:39;;;;;;;;;;;4.10;99.90;;;;;;5049800;28;19915;-89
2023/12/10 07:13:05;;;;;;;;;;;4.00;99.90;;;;;;5047601;28;19913;-89
2023/12/10 07:15:31;;;;;;;;;;;4.00;99.90;;;;;;5053201;28;20434;-89
2023/12/10 07:17:56;;;;;;;;;;;4.00;99.90;;;;;;5021345;28;19913;-89
2023/12/10 07:20:22;;;;;;;;;;;4.00;99.90;;;;;;5054249;28;20290;-90
2023/12/10 07:22:48;;;;;;;;;;;4.00;99.90;;;;;;5018733;28;20267;-90
2023/12/10 07:25:14;;;;;;;;;;;4.10;99.90;;;;;;5026386;28;19954;-90
2023/12/10 07:27:41;;;;;;;;;;;4.10;99.90;;;;;;5019874;28;20343;-89
2023/12/10 07:30:07;;;;;;;;;;;4.10;99.90;;;;;;5034715;28;19909;-89
2023/12/10 07:32:33;;;;;;;;;;;4.20;99.90;;;;;;5036064;28;19919;-90
2023/12/10 07:34:59;;;;;;;;;;;4.20;99.90;;;;;;5036249;28;19911;-91
2023/12/10 07:37:25;;;;;;;;;;;4.30;99.90;;;;;;5021964;28;20021;-89
2023/12/10 07:39:51;;;;;;;;;;;4.40;99.90;;;;;;5019660;28;19916;-89
2023/12/10 07:42:16;;;;;;;;;;;4.40;99.90;;;;;;5035894;28;19959;-89
2023/12/10 07:44:42;;;;;;;;;;;4.40;99.90;;;;;;5044164;28;19908;-89
2023/12/10 07:47:09;;;;;;;;;;;4.40;99.90;;;;;;5019571;28;19913;-89
2023/12/10 07:49:34;;;;;;;;;;;4.40;99.90;;;;;;5017673;28;19909;-88
2023/12/10 07:52:00;;;;;;;;;;;4.40;99.90;;;;;;5031124;28;19912;-89
2023/12/10 07:54:26;;;;;;;;;;;4.40;99.90;;;;;;5013889;28;20579;-89
2023/12/10 07:56:52;;;;;;;;;;;4.40;99.90;;;;;;5024930;28;20393;-89
2023/12/10 07:59:19;;;;;;;;;;;4.40;99.90;;;;;;5042537;28;20007;-89
2023/12/10 08:01:44;;;;;;;;;;;4.30;99.90;;;;;;5043912;28;19916;-89
2023/12/10 08:04:10;;;;;;;;;;;4.40;99.90;;;;;;5050319;28;20256;-89
2023/12/10 08:06:36;;;;;;;;;;;4.30;99.90;;;;;;5054376;28;19919;-90
2023/12/10 08:09:04;;;;;;;;;;;4.30;99.90;;;;;;5049061;28;19905;-89
2023/12/10 08:11:30;;;;;;;;;;;4.30;99.90;;;;;;5043741;28;19963;-90
2023/12/10 08:13:56;;;;;;;;;;;4.30;99.90;;;;;;5018632;28;19908;-87
2023/12/10 08:16:23;;;;;;;;;;;4.30;99.90;;;;;;5028914;28;19924;-88
2023/12/10 08:18:50;;;;;;;;;;;4.20;99.90;;;;;;5050874;28;20007;-88
2023/12/10 08:21:16;;;;;;;;;;;4.20;99.90;;;;;;5039621;28;19935;-87
2023/12/10 08:23:42;;;;;;;;;;;4.20;99.90;;;;;;5034055;28;19909;-86
2023/12/10 08:26:08;;;;;;;;;;;4.20;99.90;;;;;;5048848;28;19909;-86
2023/12/10 08:28:34;;;;;;;;;;;4.30;99.90;;;;;;5063823;28;19909;-89
2023/12/10 08:30:59;;;;;;;;;;;4.30;99.90;;;;;;5037796;28;20326;-87
2023/12/10 08:33:26;;;;;;;;;;;4.30;99.90;;;;;;5025667;28;19952;-85
2023/12/10 08:35:51;;;;;;;;;;;4.30;99.90;;;;;;5017699;28;20470;-86
2023/12/10 08:38:17;;;;;;;;;;;4.40;99.90;;;;;;5004124;28;19913;-86
2023/12/10 08:40:43;;;;;;;;;;;4.40;99.90;;;;;;5029988;28;20003;-90
2023/12/10 08:43:09;;;;;;;;;;;4.40;99.90;;;;;;5031850;28;19916;-88
2023/12/10 08:45:34;;;;;;;;;;;4.50;99.90;;;;;;5047397;28;19933;-87
2023/12/10 08:48:01;;;;;;;;;;;4.50;99.90;;;;;;5014079;28;19917;-88
2023/12/10 08:50:26;;;;;;;;;;;4.60;99.90;;;;;;5030575;28;19959;-89
2023/12/10 08:52:52;;;;;;;;;;;4.60;99.90;;;;;;5013871;28;20506;-89
2023/12/10 08:55:18;;;;;;;;;;;4.50;99.90;;;;;;5043346;28;20012;-90
2023/12/10 08:57:44;;;;;;;;;;;4.60;99.90;;;;;;5033734;28;19915;-88
2023/12/10 09:00:10;;;;;;;;;;;4.60;99.90;;;;;;5038605;28;20031;-88
2023/12/10 09:02:55;;;;;;;;;;;4.60;99.90;;;;;;5033024;28;19916;-89
2023/12/10 09:05:21;;;;;;;;;;;4.60;99.90;;;;;;5033939;28;19908;-88
2023/12/10 09:07:47;;;;;;;;;;;4.70;99.90;;;;;;5025677;28;20594;-89
2023/12/10 09:10:12;;;;;;;;;;;4.70;99.90;;;;;;5022484;28;19920;-89
2023/12/10 09:12:39;;;;;;;;;;;4.70;99.90;;;;;;5015049;28;20331;-88
2023/12/10 09:15:05;;;;;;;;;;;4.70;99.90;;;;;;5041749;28;19915;-89
2023/12/10 09:17:31;;;;;;;;;;;4.70;99.90;;;;;;5049886;28;19959;-89
2023/12/10 09:19:56;;;;;;;;;;;4.70;99.90;;;;;;5036731;28;19913;-89
2023/12/10 09:22:22;;;;;;;;;;;4.70;99.90;;;;;;5048511;28;19912;-89
2023/12/10 09:24:48;;;;;;;;;;;4.70;99.90;;;;;;5002166;28;19913;-87
2023/12/10 09:27:14;;;;;;;;;;;4.80;99.90;;;;;;5052193;28;19912;-88
2023/12/10 09:29:41;;;;;;;;;;;4.80;99.90;;;;;;5037752;28;19909;-90
2023/12/10 09:32:07;;;;;;;;;;;4.70;99.90;;;;;;5031543;28;19920;-88
2023/12/10 09:34:33;;;;;;;;;;;4.80;99.90;;;;;;5034561;28;19963;-88
2023/12/10 09:36:59;;;;;;;;;;;4.80;99.90;;;;;;5037988;28;20371;-89
2023/12/10 09:39:26;;;;;;;;;;;4.80;99.90;;;;;;5016946;28;19946;-88
2023/12/10 09:41:53;;;;;;;;;;;4.80;99.90;;;;;;5031872;28;19913;-90
2023/12/10 09:44:19;;;;;;;;;;;4.80;99.90;;;;;;5035994;28;19913;-89
2023/12/10 09:46:44;;;;;;;;;;;4.80;99.90;;;;;;5036702;28;19964;-89
2023/12/10 09:49:10;;;;;;;;;;;4.90;99.90;;;;;;5003957;28;19960;-89
2023/12/10 09:51:36;;;;;;;;;;;4.90;99.90;;;;;;5031650;28;19909;-90
2023/12/10 09:54:02;;;;;;;;;;;4.90;99.90;;;;;;5041671;28;19913;-90
2023/12/10 09:56:28;;;;;;;;;;;4.80;99.90;;;;;;5034460;28;19960;-90
2023/12/10 09:58:54;;;;;;;;;;;4.80;99.90;;;;;;5054201;28;19916;-89
2023/12/10 10:01:20;;;;;;;;;;;4.90;99.90;;;;;;5031114;28;19909;-90
2023/12/10 10:03:46;;;;;;;;;;;4.90;99.90;;;;;;5037679;28;19943;-89
2023/12/10 10:06:11;;;;;;;;;;;4.80;99.90;;;;;;5017039;28;19957;-89
2023/12/10 10:08:37;;;;;;;;;;;4.80;99.90;;;;;;5033934;28;19916;-90
2023/12/10 10:11:03;;;;;;;;;;;4.90;99.90;;;;;;5069866;28;20298;-87
2023/12/10 10:13:29;;;;;;;;;;;4.80;99.90;;;;;;5037291;28;19917;-89
2023/12/10 10:15:55;;;;;;;;;;;4.80;99.90;;;;;;5021404;28;20429;-88
2023/12/10 10:18:21;;;;;;;;;;;4.90;99.90;;;;;;5057304;28;19913;-88
2023/12/10 10:20:47;;;;;;;;;;;4.80;99.90;;;;;;5046265;28;19916;-88
2023/12/10 10:23:16;;;;;;;;;;;4.90;99.90;;;;;;5042903;28;19908;-86
2023/12/10 10:25:42;;;;;;;;;;;4.90;99.90;;;;;;5025752;28;19912;-87
2023/12/10 10:28:10;;;;;;;;;;;4.90;99.90;;;;;;5041741;28;19962;-87
2023/12/10 10:30:36;;;;;;;;;;;4.90;99.90;;;;;;5048242;28;19917;-90
2023/12/10 10:33:02;;;;;;;;;;;5.00;99.90;;;;;;5025474;28;20381;-87
2023/12/10 10:35:28;;;;;;;;;;;5.00;99.90;;;;;;5032360;28;19923;-86
2023/12/10 10:37:54;;;;;;;;;;;5.00;99.90;;;;;;5044241;28;19909;-84
2023/12/10 10:40:19;;;;;;;;;;;5.10;99.90;;;;;;5029634;28;19936;-86
2023/12/10 10:42:45;;;;;;;;;;;5.10;99.90;;;;;;5040277;28;19961;-87
2023/12/10 10:45:11;;;;;;;;;;;5.20;99.90;;;;;;5037739;28;19960;-88
2023/12/10 10:47:37;;;;;;;;;;;5.20;99.90;;;;;;5027635;28;19921;-89
2023/12/10 10:50:04;;;;;;;;;;;5.20;99.90;;;;;;5052357;28;19920;-88
2023/12/10 10:52:31;;;;;;;;;;;5.20;99.90;;;;;;5035964;28;19939;-89
2023/12/10 10:54:58;;;;;;;;;;;5.20;99.90;;;;;;5037117;28;19908;-88
2023/12/10 10:57:31;;;;;;;;;;;5.30;99.90;;;;;;5020278;28;20063;-89
2023/12/10 10:59:57;;;;;;;;;;;5.30;99.90;;;;;;5041744;28;19928;-87
2023/12/10 11:02:22;;;;;;;;;;;5.30;99.90;;;;;;5014766;28;20689;-86
2023/12/10 11:04:49;;;;;;;;;;;5.30;99.90;;;;;;5052572;28;19932;-88
2023/12/10 11:07:15;;;;;;;;;;;5.30;99.90;;;;;;5019788;28;19955;-89
2023/12/10 11:09:58;;;;;;;;;;;5.30;99.90;;;;;;5040745;28;19909;-88
2023/12/10 11:12:39;;;;;;;;;;;5.40;99.90;;;;;;5043210;28;19916;-88
2023/12/10 11:15:25;;;;;;;;;;;5.40;99.90;;;;;;5036916;28;19915;-87
2023/12/10 11:17:54;;;;;;;;;;;5.40;99.90;;;;;;5024637;28;19919;-86
2023/12/10 11:20:35;;;;;;;;;;;5.30;99.90;;;;;;5036110;28;19920;-86
2023/12/10 11:23:05;;;;;;;;;;;5.30;99.90;;;;;;5025004;28;20301;-87
2023/12/10 11:25:31;;;;;;;;;;;5.30;99.90;;;;;;5035316;28;19916;-85
2023/12/10 11:27:57;;;;;;;;;;;5.30;99.90;;;;;;5048296;28;19916;-84
2023/12/10 11:30:23;;;;;;;;;;;5.30;99.90;;;;;;5051855;28;20626;-84
2023/12/10 11:32:49;;;;;;;;;;;5.30;99.90;;;;;;5024320;28;19966;-86
2023/12/10 11:35:15;;;;;;;;;;;5.30;99.90;;;;;;5020069;28;19913;-86
2023/12/10 11:37:42;;;;;;;;;;;5.30;99.90;;;;;;5017497;28;19963;-87
2023/12/10 11:40:08;;;;;;;;;;;5.30;99.90;;;;;;5042740;28;19931;-86
2023/12/10 11:42:34;;;;;;;;;;;5.30;99.90;;;;;;5027654;28;20295;-86
2023/12/10 11:45:00;;;;;;;;;;;5.30;99.90;;;;;;5032283;28;19963;-86
2023/12/10 11:47:26;;;;;;;;;;;5.30;99.90;;;;;;5062589;28;20322;-86
2023/12/10 11:49:51;;;;;;;;;;;5.40;99.90;;;;;;5017481;28;20387;-83
2023/12/10 11:52:17;;;;;;;;;;;5.30;99.90;;;;;;5036467;28;19917;-87
2023/12/10 11:54:42;;;;;;;;;;;5.40;99.90;;;;;;5024473;28;19930;-86
2023/12/10 11:57:08;;;;;;;;;;;5.40;99.90;;;;;;5051695;28;19917;-86
2023/12/10 11:59:34;;;;;;;;;;;5.50;99.90;;;;;;5051636;28;19909;-84
2023/12/10 12:02:00;;;;;;;;;;;5.50;99.90;;;;;;5046954;28;19908;-87
2023/12/10 12:04:29;;;;;;;;;;;5.50;99.90;;;;;;5044793;28;20322;-87
2023/12/10 12:06:55;;;;;;;;;;;5.50;99.90;;;;;;5054172;28;20007;-87
2023/12/10 12:09:21;;;;;;;;;;;5.50;99.90;;;;;;5051897;28;19913;-87
2023/12/10 12:11:51;;;;;;;;;;;5.50;99.90;;;;;;5020484;28;19924;-87
2023/12/10 12:14:17;;;;;;;;;;;5.50;99.90;;;;;;5034131;28;20003;-85
2023/12/10 12:16:46;;;;;;;;;;;5.60;99.90;;;;;;5034622;28;19956;-86
2023/12/10 12:19:23;;;;;;;;;;;5.60;99.90;;;;;;5038410;28;20005;-88
2023/12/10 12:21:49;;;;;;;;;;;5.60;99.90;;;;;;5059080;28;19923;-88
2023/12/10 12:24:15;;;;;;;;;;;5.60;99.90;;;;;;5017963;28;19908;-88
2023/12/10 12:26:40;;;;;;;;;;;5.60;99.90;;;;;;5028268;28;19912;-87
2023/12/10 12:29:06;;;;;;;;;;;5.60;99.90;;;;;;5061606;28;19913;-87
2023/12/10 12:31:32;;;;;;;;;;;5.60;99.90;;;;;;5043023;28;19917;-87
2023/12/10 12:34:01;;;;;;;;;;;5.60;99.90;;;;;;5033544;28;19955;-88
2023/12/10 12:36:26;;;;;;;;;;;5.50;99.90;;;;;;5019266;28;20016;-88
2023/12/10 12:38:52;;;;;;;;;;;5.50;99.90;;;;;;5032919;28;19948;-88
2023/12/10 12:41:18;;;;;;;;;;;5.50;99.90;;;;;;5029133;28;20334;-88
2023/12/10 12:43:44;;;;;;;;;;;5.50;99.90;;;;;;5035140;28;19908;-87
2023/12/10 12:46:10;;;;;;;;;;;5.50;99.90;;;;;;5074937;28;20381;-88
2023/12/10 12:48:35;;;;;;;;;;;5.50;99.90;;;;;;5042364;28;19912;-88
2023/12/10 12:51:01;;;;;;;;;;;5.50;99.90;;;;;;5019491;28;19913;-89
2023/12/10 12:53:27;;;;;;;;;;;5.60;99.90;;;;;;5039992;28;19913;-88
2023/12/10 12:55:53;;;;;;;;;;;5.60;99.90;;;;;;5033059;28;19920;-90
2023/12/10 12:58:18;;;;;;;;;;;5.60;99.90;;;;;;5041833;28;19913;-86
2023/12/10 13:00:44;;;;;;;;;;;5.60;99.90;;;;;;5037522;28;20370;-89
2023/12/10 13:03:10;;;;;;;;;;;5.60;99.90;;;;;;5051558;28;20268;-87
2023/12/10 13:05:35;;;;;;;;;;;5.60;99.90;;;;;;5014417;28;19920;-89
2023/12/10 13:08:01;;;;;;;;;;;5.60;99.90;;;;;;5029036;28;19991;-90
2023/12/10 13:10:27;;;;;;;;;;;5.60;99.90;;;;;;5019314;28;20011;-88
2023/12/10 13:12:53;;;;;;;;;;;5.60;99.90;;;;;;5055121;28;19920;-88
2023/12/10 13:15:18;;;;;;;;;;;5.60;99.90;;;;;;5056204;28;20337;-88
2023/12/10 13:17:44;;;;;;;;;;;5.70;99.90;;;;;;5041546;28;19959;-87
2023/12/10 13:20:10;;;;;;;;;;;5.70;99.90;;;;;;5049110;28;19920;-86
2023/12/10 13:22:36;;;;;;;;;;;5.80;99.90;;;;;;5017120;28;19920;-88
2023/12/10 13:25:04;;;;;;;;;;;5.80;99.90;;;;;;5071967;28;19904;-87
2023/12/10 13:27:30;;;;;;;;;;;5.90;99.90;;;;;;4985101;28;20287;-88
2023/12/10 13:29:56;;;;;;;;;;;5.90;99.90;;;;;;5044788;28;19920;-87
2023/12/10 13:32:22;;;;;;;;;;;5.90;99.90;;;;;;5045046;28;19998;-90
2023/12/10 13:34:48;;;;;;;;;;;5.90;99.90;;;;;;5047645;28;19947;-88
2023/12/10 13:37:13;;;;;;;;;;;5.90;99.90;;;;;;5023356;28;20302;-89
2023/12/10 13:39:41;;;;;;;;;;;5.80;99.90;;;;;;5009243;28;19905;-88
2023/12/10 13:42:07;;;;;;;;;;;5.80;99.90;;;;;;5028098;28;19913;-87
2023/12/10 13:44:32;;;;;;;;;;;5.90;99.90;;;;;;5035470;28;19961;-85
2023/12/10 13:46:58;;;;;;;;;;;5.90;99.90;;;;;;5011193;28;19912;-86
2023/12/10 13:49:24;;;;;;;;;;;5.80;99.90;;;;;;5044758;28;19984;-89
2023/12/10 13:51:50;;;;;;;;;;;5.80;99.90;;;;;;5050180;28;19948;-87
2023/12/10 13:54:16;;;;;;;;;;;5.80;99.90;;;;;;5045228;28;20421;-89
2023/12/10 13:56:42;;;;;;;;;;;5.80;99.90;;;;;;5054706;28;19908;-88
2023/12/10 13:59:07;;;;;;;;;;;5.80;99.90;;;;;;5039758;28;19956;-87
2023/12/10 14:01:35;;;;;;;;;;;5.80;99.90;;;;;;5049074;28;19909;-86
2023/12/10 14:04:01;;;;;;;;;;;5.80;99.90;;;;;;5042896;28;20468;-90
2023/12/10 14:06:27;;;;;;;;;;;5.80;99.90;;;;;;5009719;28;20563;-89
2023/12/10 14:08:53;;;;;;;;;;;5.80;99.90;;;;;;5030412;28;19920;-89
2023/12/10 14:11:19;;;;;;;;;;;5.80;99.90;;;;;;5033563;28;19909;-88
2023/12/10 14:13:45;;;;;;;;;;;5.70;99.90;;;;;;5033831;28;20383;-88
2023/12/10 14:16:11;;;;;;;;;;;5.70;99.90;;;;;;5013891;28;19944;-89
2023/12/10 14:18:36;;;;;;;;;;;5.70;99.90;;;;;;5006756;28;19920;-88
2023/12/10 14:21:02;;;;;;;;;;;5.70;99.90;;;;;;5044789;28;19963;-91
2023/12/10 14:23:28;;;;;;;;;;;5.80;99.90;;;;;;5012959;28;19913;-88
2023/12/10 14:25:53;;;;;;;;;;;5.80;99.90;;;;;;5032591;28;20004;-88